Time;durP1;ratioP1;P1;durP2;ratioP2;P2;SDS_P1;SDS_P2;PMS_P1;PMS_P2;Temp;Humidity;BMP_temperature;BMP_pressure;BME280_temperature;BME280_humidity;BME280_pressure;Samples;Min_cycle;Max_cycle;Signal;HPM_P1;HPM_P2
2022/12/13 00:00:57;;;;;;;29.23;18.73;;;;;;;-4.78;100.00;98005.91;4200643;28;20203;-48
2022/12/13 00:02:59;;;;;;;23.10;17.30;;;;;;;-4.76;100.00;98003.91;4204404;28;20314;-49
2022/12/13 00:05:01;;;;;;;23.50;18.73;;;;;;;-4.71;100.00;97996.25;4206513;28;20203;-48
2022/12/13 00:07:03;;;;;;;27.97;17.33;;;;;;;-4.81;100.00;98006.28;4207397;28;20712;-49
2022/12/13 00:09:05;;;;;;;24.47;14.70;;;;;;;-4.83;100.00;97997.56;4202045;28;20245;-49
2022/12/13 00:11:10;;;;;;;24.17;15.80;;;;;;;-4.84;100.00;98002.09;4219353;27;20226;-50
2022/12/13 00:13:12;;;;;;;17.97;15.73;;;;;;;-4.84;100.00;98001.25;4191942;28;20260;-49
2022/12/13 00:15:14;;;;;;;20.03;16.03;;;;;;;-4.88;100.00;97994.59;4199342;28;20309;-48
2022/12/13 00:17:19;;;;;;;17.07;15.27;;;;;;;-4.79;100.00;97994.41;4200804;28;20871;-49
2022/12/13 00:19:21;;;;;;;15.93;12.97;;;;;;;-4.82;100.00;97991.25;4218372;27;20290;-49
2022/12/13 00:21:29;;;;;;;23.53;17.60;;;;;;;-4.81;100.00;97995.59;4202370;28;20202;-49
2022/12/13 00:23:31;;;;;;;19.07;15.80;;;;;;;-4.80;100.00;97992.75;4204529;28;20309;-49
2022/12/13 00:25:33;;;;;;;19.43;15.80;;;;;;;-4.85;100.00;97994.25;4189159;28;20212;-50
2022/12/13 00:27:35;;;;;;;20.03;17.10;;;;;;;-4.90;100.00;97994.75;4214509;28;20617;-49
2022/12/13 00:29:36;;;;;;;29.77;16.70;;;;;;;-4.91;100.00;97979.75;4199137;28;20583;-48
2022/12/13 00:31:38;;;;;;;20.00;18.00;;;;;;;-4.90;100.00;97985.91;4200126;28;20725;-51
2022/12/13 00:34:00;;;;;;;18.83;16.83;;;;;;;-4.90;100.00;97975.25;4190640;28;20202;-49
2022/12/13 00:36:04;;;;;;;24.17;16.60;;;;;;;-4.91;100.00;97973.59;4190447;28;20245;-49
2022/12/13 00:38:06;;;;;;;19.83;15.37;;;;;;;-4.97;100.00;97976.91;4199932;28;20262;-48
2022/12/13 00:40:08;;;;;;;21.00;15.07;;;;;;;-5.02;100.00;97974.75;4205530;28;20246;-49
2022/12/13 00:42:10;;;;;;;17.90;15.07;;;;;;;-5.07;100.00;97962.94;4217887;28;20211;-50
2022/12/13 00:44:13;;;;;;;19.97;15.73;;;;;;;-5.08;100.00;97971.94;4183471;28;20223;-49
2022/12/13 00:46:17;;;;;;;27.33;18.37;;;;;;;-5.11;100.00;97966.91;4199397;28;20244;-49
2022/12/13 00:48:19;;;;;;;19.93;17.93;;;;;;;-5.06;100.00;97959.25;4200917;28;20250;-50
2022/12/13 00:50:20;;;;;;;26.10;16.37;;;;;;;-5.18;100.00;97960.59;4187148;28;21934;-48
2022/12/13 00:52:22;;;;;;;17.17;15.27;;;;;;;-5.32;100.00;97963.91;4200002;28;20642;-48
2022/12/13 00:54:24;;;;;;;19.53;15.40;;;;;;;-5.18;100.00;97963.25;4200011;28;20312;-48
2022/12/13 00:56:27;;;;;;;19.60;15.80;;;;;;;-5.04;100.00;97957.25;4216642;28;20231;-50
2022/12/13 00:58:29;;;;;;;25.20;17.63;;;;;;;-5.19;100.00;97957.06;4202429;28;20211;-48
2022/12/13 01:00:31;;;;;;;21.07;18.50;;;;;;;-5.30;100.00;97959.25;4200583;28;20298;-50
2022/12/13 01:02:33;;;;;;;30.80;19.73;;;;;;;-5.14;100.00;97954.75;4201034;28;20286;-49
2022/12/13 01:04:35;;;;;;;22.43;20.00;;;;;;;-5.11;100.00;97961.59;4201019;28;20206;-50
2022/12/13 01:06:39;;;;;;;22.70;18.63;;;;;;;-5.07;100.00;97954.94;4200968;28;20254;-49
2022/12/13 01:08:42;;;;;;;26.33;18.63;;;;;;;-5.07;100.00;97953.09;4204368;28;20238;-48
2022/12/13 01:10:45;;;;;;;25.97;18.13;;;;;;;-5.08;100.00;97954.09;4202964;28;20222;-49
2022/12/13 01:12:47;;;;;;;21.27;18.03;;;;;;;-5.05;100.00;97955.59;4198239;28;20681;-50
2022/12/13 01:14:48;;;;;;;32.07;19.50;;;;;;;-5.00;100.00;97950.59;4203930;28;20993;-49
2022/12/13 01:16:56;;;;;;;32.23;20.77;;;;;;;-4.89;100.00;97944.91;4218811;28;20313;-48
2022/12/13 01:18:58;;;;;;;29.97;18.17;;;;;;;-4.88;100.00;97946.59;4189919;28;20204;-49
2022/12/13 01:21:12;;;;;;;40.47;18.97;;;;;;;-4.83;100.00;97950.41;4221080;28;20743;-49
2022/12/13 01:23:13;;;;;;;43.33;22.07;;;;;;;-4.88;100.00;97951.94;4156553;28;1290860;-48
2022/12/13 01:25:15;;;;;;;21.57;18.90;;;;;;;-4.89;100.00;97944.91;4200588;28;20600;-48
2022/12/13 01:27:17;;;;;;;29.20;17.77;;;;;;;-4.84;100.00;97950.56;4186093;28;20658;-48
2022/12/13 01:29:20;;;;;;;19.93;17.87;;;;;;;-4.79;100.00;97956.25;4217614;28;20209;-48
2022/12/13 01:31:22;;;;;;;17.70;15.70;;;;;;;-4.78;100.00;97963.25;4217234;28;20287;-48
2022/12/13 01:33:25;;;;;;;22.20;18.67;;;;;;;-4.73;100.00;97960.91;4198271;28;20284;-48
2022/12/13 01:35:27;;;;;;;26.47;18.70;;;;;;;-4.74;100.00;97959.25;4202465;28;20213;-49
2022/12/13 01:37:28;;;;;;;26.63;16.47;;;;;;;-4.71;100.00;97950.88;4200588;28;20335;-49
2022/12/13 01:39:30;;;;;;;21.20;16.20;;;;;;;-4.64;100.00;97954.53;4198288;28;20663;-48
2022/12/13 01:41:39;;;;;;;22.80;17.07;;;;;;;-4.68;100.00;97948.72;4201407;28;20264;-49
2022/12/13 01:43:40;;;;;;;20.37;16.47;;;;;;;-4.64;100.00;97954.53;4199427;28;20224;-49
2022/12/13 01:45:43;;;;;;;20.33;16.13;;;;;;;-4.62;100.00;97944.53;4216658;28;20263;-48
2022/12/13 01:47:47;;;;;;;25.47;19.87;;;;;;;-4.59;100.00;97936.19;4200419;28;20700;-49
2022/12/13 01:49:49;;;;;;;17.23;15.50;;;;;;;-4.70;100.00;97939.22;4220076;27;20222;-49
2022/12/13 01:51:57;;;;;;;24.20;15.83;;;;;;;-4.62;100.00;97937.38;4197024;28;20305;-48
2022/12/13 01:54:01;;;;;;;25.10;17.37;;;;;;;-4.76;100.00;97943.41;4215878;27;20240;-50
2022/12/13 01:56:08;;;;;;;19.97;17.93;;;;;;;-4.71;100.00;97934.88;4204457;28;20293;-50
2022/12/13 01:58:11;;;;;;;28.77;15.57;;;;;;;-4.58;100.00;97933.38;4200788;28;20338;-48
2022/12/13 02:00:14;;;;;;;19.53;16.47;;;;;;;-4.63;100.00;97940.19;4185920;28;20269;-49
2022/12/13 02:02:16;;;;;;;28.93;16.63;;;;;;;-4.61;100.00;97930.22;4202131;28;20206;-48
2022/12/13 02:04:22;;;;;;;24.67;17.60;;;;;;;-4.67;100.00;97938.91;4200326;28;20231;-47
2022/12/13 02:06:30;;;;;;;27.60;16.83;;;;;;;-4.64;100.00;97933.19;4217543;27;20591;-48
2022/12/13 02:08:33;;;;;;;20.97;16.63;;;;;;;-4.62;100.00;97932.03;4206660;28;20310;-49
2022/12/13 02:10:36;;;;;;;22.57;16.57;;;;;;;-4.75;100.00;97934.38;4201648;28;20214;-48
2022/12/13 02:12:39;;;;;;;22.57;15.07;;;;;;;-4.72;100.00;97935.88;4199801;28;20234;-49
2022/12/13 02:14:41;;;;;;;23.30;17.83;;;;;;;-4.79;100.00;97937.56;4186630;28;20212;-48
2022/12/13 02:16:59;;;;;;;20.50;17.87;;;;;;;-4.81;100.00;97939.59;4199243;28;20258;-49
2022/12/13 02:19:50;;;;;;;25.83;17.60;;;;;;;-4.72;100.00;97947.41;4204401;28;20203;-48
2022/12/13 02:22:29;;;;;;;25.03;16.67;;;;;;;-4.68;100.00;97947.91;4214425;28;20236;-48
2022/12/13 02:24:53;;;;;;;20.67;16.37;;;;;;;-4.78;100.00;97947.22;4203563;28;20290;-48
2022/12/13 02:27:02;;;;;;;19.00;15.50;;;;;;;-4.69;100.00;97948.88;4216706;28;20321;-49
2022/12/13 02:29:55;;;;;;;19.63;15.80;;;;;;;-4.67;100.00;97944.22;4200560;28;20202;-48
2022/12/13 02:32:17;;;;;;;20.60;16.07;;;;;;;-4.72;100.00;97952.75;4176475;28;20229;-48
2022/12/13 02:34:38;;;;;;;18.03;15.63;;;;;;;-4.72;100.00;97949.22;4197515;28;20261;-48
2022/12/13 02:36:42;;;;;;;16.60;14.53;;;;;;;-4.75;100.00;97946.88;4186881;28;20231;-49
2022/12/13 02:39:20;;;;;;;16.50;14.67;;;;;;;-4.69;100.00;97946.22;4201030;28;20207;-49
2022/12/13 02:41:36;;;;;;;17.53;13.63;;;;;;;-4.70;100.00;97944.56;4154000;28;20259;-50
2022/12/13 02:44:11;;;;;;;21.10;15.50;;;;;;;-4.65;100.00;97943.06;4183839;28;20293;-49
2022/12/13 02:46:26;;;;;;;15.87;14.00;;;;;;;-4.66;100.00;97935.22;4204442;28;20200;-49
2022/12/13 02:48:30;;;;;;;16.00;13.80;;;;;;;-4.71;100.00;97938.41;4217461;28;20216;-51
2022/12/13 02:50:34;;;;;;;21.87;16.27;;;;;;;-4.83;100.00;97929.06;4202821;28;20289;-49
2022/12/13 02:52:36;;;;;;;22.70;14.80;;;;;;;-4.95;100.00;97932.25;4215945;28;20863;-49
2022/12/13 02:54:40;;;;;;;19.30;15.57;;;;;;;-5.05;100.00;97931.59;4202786;28;20202;-49
2022/12/13 02:56:53;;;;;;;18.40;16.70;;;;;;;-5.14;100.00;97943.28;4206885;28;20231;-48
2022/12/13 02:58:55;;;;;;;19.40;14.17;;;;;;;-5.13;100.00;97937.75;4204417;28;20251;-49
2022/12/13 03:01:09;;;;;;;22.13;15.97;;;;;;;-5.11;100.00;97937.59;4197889;28;20293;-48
2022/12/13 03:03:30;;;;;;;23.10;15.97;;;;;;;-5.17;100.00;97925.78;4205634;28;20213;-50
2022/12/13 03:06:28;;;;;;;20.87;15.67;;;;;;;-5.05;100.00;97923.59;4217043;28;20262;-49
2022/12/13 03:09:06;;;;;;;17.93;15.30;;;;;;;-5.01;100.00;97924.94;4200313;28;20203;-50
2022/12/13 03:11:10;;;;;;;18.60;16.80;;;;;;;-4.94;100.00;97925.94;4205081;28;20206;-48
2022/12/13 03:13:35;;;;;;;26.53;16.03;;;;;;;-5.09;100.00;97917.75;4217692;28;20237;-48
2022/12/13 03:15:43;;;;;;;18.73;14.33;;;;;;;-5.09;100.00;97912.44;4198981;28;20204;-49
2022/12/13 03:17:52;;;;;;;18.90;16.90;;;;;;;-5.13;100.00;97915.59;4197031;28;20817;-49
2022/12/13 03:19:54;;;;;;;17.17;15.57;;;;;;;-5.11;100.00;97908.25;4204061;28;20297;-49
2022/12/13 03:21:56;;;;;;;27.60;17.07;;;;;;;-5.08;100.00;97914.09;4200746;28;20642;-49
2022/12/13 03:23:58;;;;;;;17.50;15.90;;;;;;;-5.06;100.00;97921.94;4215282;28;20301;-49
2022/12/13 03:26:10;;;;;;;17.70;15.97;;;;;;;-4.98;100.00;97919.25;4216215;28;20231;-49
2022/12/13 03:28:12;;;;;;;17.70;15.57;;;;;;;-5.08;100.00;97921.28;4188520;28;20310;-49
2022/12/13 03:30:14;;;;;;;23.73;16.50;;;;;;;-5.07;100.00;97922.94;4201707;28;20253;-50
2022/12/13 03:32:16;;;;;;;17.63;15.83;;;;;;;-5.20;100.00;97925.28;4217655;28;20340;-48
2022/12/13 03:34:18;;;;;;;16.93;15.23;;;;;;;-4.98;100.00;97924.59;4197539;28;20757;-51
2022/12/13 03:36:24;;;;;;;25.30;15.00;;;;;;;-5.02;100.00;97918.75;4213975;28;20824;-50
2022/12/13 03:38:26;;;;;;;15.80;13.80;;;;;;;-5.17;100.00;97914.25;4200821;28;20290;-49
2022/12/13 03:40:29;;;;;;;34.90;16.80;;;;;;;-5.19;100.00;97916.28;4199761;28;20301;-49
2022/12/13 03:42:31;;;;;;;22.00;16.20;;;;;;;-5.20;100.00;97903.94;4203247;28;20228;-49
2022/12/13 03:44:32;;;;;;;16.03;14.47;;;;;;;-5.19;100.00;97910.94;4216456;28;20213;-49
2022/12/13 03:46:34;;;;;;;19.47;14.10;;;;;;;-5.20;100.00;97909.28;4221316;28;20709;-49
2022/12/13 03:48:36;;;;;;;24.17;18.07;;;;;;;-5.14;100.00;97913.94;4218074;28;20213;-49
2022/12/13 03:50:38;;;;;;;15.90;14.37;;;;;;;-5.17;100.00;97911.59;4202975;28;20242;-51
2022/12/13 03:52:40;;;;;;;16.80;13.20;;;;;;;-5.18;100.00;97907.28;4190307;28;20223;-48
2022/12/13 03:54:41;;;;;;;14.70;13.03;;;;;;;-5.06;100.00;97911.28;4199508;28;20202;-50
2022/12/13 03:56:45;;;;;;;19.63;13.53;;;;;;;-5.14;100.00;97905.94;4198448;28;20219;-49
2022/12/13 03:58:47;;;;;;;20.37;15.53;;;;;;;-5.09;100.00;97900.91;4186183;28;20269;-48
2022/12/13 04:00:49;;;;;;;17.73;14.90;;;;;;;-5.16;100.00;97905.25;4199522;28;20290;-49
2022/12/13 04:02:51;;;;;;;22.93;15.27;;;;;;;-5.25;100.00;97900.94;4200501;28;20973;-49
2022/12/13 04:04:53;;;;;;;17.63;15.07;;;;;;;-5.21;100.00;97899.63;4202913;28;20211;-49
2022/12/13 04:07:01;;;;;;;21.63;16.50;;;;;;;-5.25;100.00;97895.63;4219907;27;20243;-49
2022/12/13 04:09:02;;;;;;;19.67;15.80;;;;;;;-5.29;100.00;97891.59;4222201;27;20634;-49
2022/12/13 04:13:31;;;;;;;17.83;14.07;;;;;;;-5.23;100.00;97888.28;4204274;28;20294;-50
2022/12/13 04:15:33;;;;;;;18.00;15.63;;;;;;;-5.21;100.00;97891.63;4207140;28;20236;-49
2022/12/13 04:17:35;;;;;;;18.07;14.70;;;;;;;-5.28;100.00;97892.44;4220574;27;20222;-49
2022/12/13 04:19:37;;;;;;;17.53;15.93;;;;;;;-5.17;100.00;97890.28;4221854;27;20230;-50
2022/12/13 04:21:38;;;;;;;17.33;15.67;;;;;;;-5.29;100.00;97888.94;4205972;28;20293;-50
2022/12/13 04:23:40;;;;;;;14.70;13.20;;;;;;;-5.17;100.00;97890.28;4207014;28;20280;-50
2022/12/13 04:25:42;;;;;;;17.57;14.20;;;;;;;-5.25;100.00;97895.63;4201943;28;20235;-48
2022/12/13 04:27:45;;;;;;;18.90;15.13;;;;;;;-5.24;100.00;97886.63;4193850;28;20231;-50
2022/12/13 04:29:46;;;;;;;17.10;15.40;;;;;;;-5.27;100.00;97894.97;4200275;28;20240;-48
2022/12/13 04:31:48;;;;;;;18.33;15.33;;;;;;;-5.22;100.00;97890.78;4205775;28;20752;-48
2022/12/13 04:33:50;;;;;;;16.50;13.87;;;;;;;-5.16;100.00;97894.59;4204502;28;20207;-48
2022/12/13 04:35:52;;;;;;;21.37;15.87;;;;;;;-5.20;100.00;97890.63;4218577;28;20284;-48
2022/12/13 04:37:55;;;;;;;17.30;13.47;;;;;;;-5.16;100.00;97894.59;4205575;28;20342;-49
2022/12/13 04:39:57;;;;;;;19.53;15.77;;;;;;;-5.14;100.00;97895.28;4202977;28;20270;-47
2022/12/13 04:42:02;;;;;;;17.57;13.50;;;;;;;-5.19;100.00;97886.94;4185065;28;20651;-48
2022/12/13 04:44:06;;;;;;;15.63;13.83;;;;;;;-5.14;100.00;97892.63;4206794;28;20294;-48
2022/12/13 04:46:28;;;;;;;14.87;13.57;;;;;;;-5.17;100.00;97887.59;4200891;27;20211;-48
2022/12/13 04:48:31;;;;;;;22.10;17.37;;;;;;;-5.17;100.00;97890.28;4199158;28;20210;-48
2022/12/13 04:50:33;;;;;;;16.37;14.70;;;;;;;-5.23;100.00;97888.28;4198429;28;20195;-47
2022/12/13 04:52:36;;;;;;;17.67;15.63;;;;;;;-5.24;100.00;97881.28;4199970;28;20728;-48
2022/12/13 04:54:38;;;;;;;19.97;16.27;;;;;;;-5.23;100.00;97885.59;4197718;28;20656;-48
2022/12/13 04:56:40;;;;;;;16.23;14.97;;;;;;;-5.11;100.00;97881.59;4206068;28;20351;-49
2022/12/13 04:58:41;;;;;;;19.73;15.70;;;;;;;-5.22;100.00;97881.94;4198372;28;20231;-47
2022/12/13 05:00:43;;;;;;;17.53;14.87;;;;;;;-5.13;100.00;97888.94;4204045;28;20660;-48
2022/12/13 05:02:45;;;;;;;17.03;15.27;;;;;;;-5.15;100.00;97886.44;4221777;27;20206;-47
2022/12/13 05:04:48;;;;;;;22.13;14.70;;;;;;;-5.17;100.00;97882.28;4189120;28;20215;-48
2022/12/13 05:06:56;;;;;;;18.57;15.87;;;;;;;-5.23;100.00;97885.59;4206062;28;20223;-48
2022/12/13 05:08:57;;;;;;;25.70;15.40;;;;;;;-5.36;100.00;97892.47;4207514;28;20206;-48
2022/12/13 05:11:01;;;;;;;15.57;13.17;;;;;;;-5.26;100.00;97888.63;4218507;28;20213;-48
2022/12/13 05:13:03;;;;;;;17.83;15.93;;;;;;;-5.26;100.00;97883.28;4221582;27;20261;-48
2022/12/13 05:15:06;;;;;;;16.53;14.80;;;;;;;-5.17;100.00;97883.13;4205231;28;20206;-49
2022/12/13 05:17:08;;;;;;;19.57;15.43;;;;;;;-5.17;100.00;97876.94;4208677;28;20230;-50
2022/12/13 05:19:09;;;;;;;15.47;13.87;;;;;;;-5.24;100.00;97881.28;4219955;27;20198;-49
2022/12/13 05:21:12;;;;;;;18.50;14.77;;;;;;;-5.12;100.00;97885.28;4206063;28;20206;-50
2022/12/13 05:23:13;;;;;;;23.70;17.03;;;;;;;-5.27;100.00;97885.09;4205054;28;20238;-51
2022/12/13 05:25:29;;;;;;;17.50;14.57;;;;;;;-5.25;100.00;97884.94;4209907;27;20608;-50
2022/12/13 05:27:31;;;;;;;20.20;14.43;;;;;;;-5.16;100.00;97890.13;4200399;28;20764;-48
2022/12/13 05:29:35;;;;;;;17.60;15.83;;;;;;;-5.26;100.00;97884.09;4204064;28;20260;-49
2022/12/13 05:31:36;;;;;;;20.50;14.50;;;;;;;-5.20;100.00;97883.44;4201038;28;20238;-48
2022/12/13 05:33:38;;;;;;;18.90;15.97;;;;;;;-5.27;100.00;97876.31;4216475;27;20662;-48
2022/12/13 05:35:40;;;;;;;22.13;14.70;;;;;;;-5.27;100.00;97877.13;4198480;28;20235;-47
2022/12/13 05:37:42;;;;;;;16.70;15.00;;;;;;;-5.21;100.00;97878.31;4182429;28;20247;-47
2022/12/13 05:39:44;;;;;;;21.83;14.70;;;;;;;-5.21;100.00;97875.63;4206562;28;20206;-50
2022/12/13 05:41:48;;;;;;;18.80;15.40;;;;;;;-5.12;100.00;97869.28;4197882;28;20298;-48
2022/12/13 05:43:51;;;;;;;16.03;14.07;;;;;;;-5.16;100.00;97862.59;4213033;28;20641;-47
2022/12/13 05:45:53;;;;;;;18.37;15.53;;;;;;;-5.24;100.00;97870.63;4182050;28;20215;-47
2022/12/13 05:47:54;;;;;;;14.43;13.03;;;;;;;-5.20;100.00;97872.78;4187775;28;20296;-46
2022/12/13 05:49:56;;;;;;;27.23;18.57;;;;;;;-5.23;100.00;97871.47;4188285;28;20674;-47
2022/12/13 05:51:58;;;;;;;17.20;14.87;;;;;;;-5.30;100.00;97876.63;4202031;28;20242;-47
2022/12/13 05:54:00;;;;;;;18.27;13.33;;;;;;;-5.29;100.00;97880.94;4189019;28;20600;-49
2022/12/13 05:56:02;;;;;;;16.47;14.43;;;;;;;-5.34;100.00;97871.78;4198299;28;20830;-48
2022/12/13 05:58:04;;;;;;;19.57;16.33;;;;;;;-5.24;100.00;97873.28;4205244;28;20642;-49
2022/12/13 06:00:14;;;;;;;17.87;13.80;;;;;;;-5.14;100.00;97873.97;4218498;28;20221;-47
2022/12/13 06:02:31;;;;;;;16.60;14.93;;;;;;;-5.17;100.00;97872.47;4187937;28;20765;-47
2022/12/13 06:04:33;;;;;;;20.20;13.57;;;;;;;-5.13;100.00;97878.28;4216658;27;20199;-47
2022/12/13 06:06:35;;;;;;;14.67;13.47;;;;;;;-5.18;100.00;97881.47;4201338;28;20238;-48
2022/12/13 06:08:37;;;;;;;13.70;12.47;;;;;;;-5.21;100.00;97891.63;4219216;27;20286;-49
2022/12/13 06:10:39;;;;;;;14.60;13.23;;;;;;;-5.24;100.00;97894.59;4200258;28;20294;-48
2022/12/13 06:12:47;;;;;;;23.43;14.77;;;;;;;-5.29;100.00;97891.59;4184146;28;21167;-48
2022/12/13 06:14:49;;;;;;;14.40;13.20;;;;;;;-5.29;100.00;97893.44;4184452;28;20697;-49
2022/12/13 06:16:51;;;;;;;16.50;14.27;;;;;;;-5.26;100.00;97889.44;4217177;28;20598;-49
2022/12/13 06:18:54;;;;;;;18.30;12.73;;;;;;;-5.29;100.00;97880.94;4199345;28;21044;-49
2022/12/13 06:21:08;;;;;;;15.07;13.67;;;;;;;-5.14;100.00;97889.97;4218085;28;20322;-48
2022/12/13 06:23:10;;;;;;;15.47;13.37;;;;;;;-5.19;100.00;97884.28;4180286;28;20215;-48
2022/12/13 06:25:12;;;;;;;29.50;17.20;;;;;;;-5.26;100.00;97888.63;4204901;28;20207;-48
2022/12/13 06:27:32;;;;;;;15.77;14.33;;;;;;;-5.16;100.00;97887.44;4197235;28;20240;-49
2022/12/13 06:29:36;;;;;;;18.27;16.47;;;;;;;-5.16;100.00;97889.25;4196732;28;20198;-47
2022/12/13 06:31:38;;;;;;;15.83;14.40;;;;;;;-5.17;100.00;97890.28;4194381;28;20574;-49
2022/12/13 06:33:40;;;;;;;14.87;13.33;;;;;;;-5.17;100.00;97892.94;4213428;28;20225;-48
2022/12/13 06:35:42;;;;;;;21.60;14.63;;;;;;;-5.21;100.00;97887.09;4194200;28;20244;-49
2022/12/13 06:37:44;;;;;;;14.77;13.30;;;;;;;-5.25;100.00;97884.94;4180896;28;20975;-49
2022/12/13 06:39:47;;;;;;;19.37;14.03;;;;;;;-5.24;100.00;97894.59;4197937;28;20253;-49
2022/12/13 06:41:48;;;;;;;19.57;13.87;;;;;;;-5.23;100.00;97888.28;4201873;28;20234;-49
2022/12/13 06:43:50;;;;;;;22.07;14.47;;;;;;;-5.29;100.00;97888.94;4217265;27;20483;-49
2022/12/13 06:45:52;;;;;;;16.87;15.37;;;;;;;-5.31;100.00;97896.28;4214966;28;20214;-49
2022/12/13 06:47:55;;;;;;;19.23;15.30;;;;;;;-5.30;100.00;97892.59;4214247;28;20282;-49
2022/12/13 06:49:57;;;;;;;19.93;15.30;;;;;;;-5.35;100.00;97894.13;4197765;28;20294;-50
2022/12/13 06:52:08;;;;;;;19.83;14.97;;;;;;;-5.34;100.00;97896.63;4216095;28;20603;-49
2022/12/13 06:54:10;;;;;;;15.87;13.03;;;;;;;-5.35;100.00;97894.94;4200296;28;20262;-49
2022/12/13 06:56:13;;;;;;;20.40;15.00;;;;;;;-5.27;100.00;97903.75;4215110;28;20735;-49
2022/12/13 06:58:15;;;;;;;15.57;12.43;;;;;;;-5.30;100.00;97903.28;4216132;28;20215;-51
2022/12/13 07:00:17;;;;;;;17.70;15.87;;;;;;;-5.35;100.00;97905.59;4179777;28;20207;-48
2022/12/13 07:02:23;;;;;;;23.10;13.90;;;;;;;-5.36;100.00;97903.13;4196773;28;20911;-48
2022/12/13 07:04:26;;;;;;;17.03;15.43;;;;;;;-5.37;100.00;97902.28;4196123;28;20627;-49
2022/12/13 07:06:31;;;;;;;28.20;14.90;;;;;;;-5.28;100.00;97916.44;4210705;28;20800;-49
2022/12/13 07:08:34;;;;;;;17.63;12.63;;;;;;;-5.35;100.00;97902.94;4191726;28;20345;-49
2022/12/13 07:10:37;;;;;;;17.03;15.10;;;;;;;-5.36;100.00;97906.59;4214936;28;20252;-48
2022/12/13 07:12:39;;;;;;;15.13;13.60;;;;;;;-5.29;100.00;97904.94;4193441;28;20198;-49
2022/12/13 07:14:41;;;;;;;13.77;12.37;;;;;;;-5.30;100.00;97905.94;4193192;28;21053;-49
2022/12/13 07:16:43;;;;;;;17.30;14.77;;;;;;;-5.23;100.00;97898.13;4211943;28;20233;-50
2022/12/13 07:18:45;;;;;;;15.83;14.23;;;;;;;-5.28;100.00;97905.78;4214522;28;20237;-49
2022/12/13 07:20:47;;;;;;;14.57;13.13;;;;;;;-5.40;100.00;97902.63;4196626;28;20269;-49
2022/12/13 07:22:55;;;;;;;19.23;14.50;;;;;;;-5.42;100.00;97899.25;4212252;28;20213;-51
2022/12/13 07:24:59;;;;;;;25.93;15.43;;;;;;;-5.41;100.00;97903.63;4214709;28;20725;-49
2022/12/13 07:27:02;;;;;;;16.63;13.17;;;;;;;-5.42;100.00;97915.25;4193999;28;20313;-50
2022/12/13 07:29:04;;;;;;;22.03;14.73;;;;;;;-5.38;100.00;97921.94;4190844;28;20570;-49
2022/12/13 07:31:07;;;;;;;16.40;14.90;;;;;;;-5.37;100.00;97926.25;4213312;28;20256;-49
2022/12/13 07:33:10;;;;;;;18.53;15.87;;;;;;;-5.39;100.00;97930.94;4187887;28;20277;-48
2022/12/13 07:35:12;;;;;;;20.93;16.63;;;;;;;-5.34;100.00;97928.59;4187410;28;21298;-49
2022/12/13 07:37:14;;;;;;;16.00;14.10;;;;;;;-5.40;100.00;97933.75;4215926;28;20218;-49
2022/12/13 07:39:31;;;;;;;15.70;13.87;;;;;;;-5.41;100.00;97932.94;4201074;28;20694;-49
2022/12/13 07:41:34;;;;;;;16.80;15.10;;;;;;;-5.40;100.00;97929.25;4200204;28;20205;-48
2022/12/13 07:43:36;;;;;;;19.80;14.30;;;;;;;-5.36;100.00;97930.59;4205893;28;20240;-48
2022/12/13 07:45:38;;;;;;;15.97;14.40;;;;;;;-5.34;100.00;97928.59;4191106;28;20735;-48
2022/12/13 07:47:40;;;;;;;19.47;15.00;;;;;;;-5.24;100.00;97918.59;4218351;28;20225;-49
2022/12/13 07:49:42;;;;;;;18.17;16.47;;;;;;;-5.29;100.00;97915.59;4201682;28;20663;-49
2022/12/13 07:51:44;;;;;;;19.40;17.50;;;;;;;-5.23;100.00;97914.94;4202090;28;20613;-49
2022/12/13 07:53:46;;;;;;;20.23;16.07;;;;;;;-5.22;100.00;97919.25;4203707;28;20224;-48
2022/12/13 07:55:48;;;;;;;34.37;16.90;;;;;;;-5.06;100.00;97921.94;4205469;28;20297;-49
2022/12/13 07:57:52;;;;;;;23.70;15.87;;;;;;;-5.19;100.00;97921.59;4200193;28;20833;-49
2022/12/13 07:59:54;;;;;;;30.40;18.50;;;;;;;-5.10;100.00;97934.78;4218892;28;20206;-48
2022/12/13 08:01:56;;;;;;;21.47;16.63;;;;;;;-4.98;100.00;97922.78;4220135;27;20217;-48
2022/12/13 08:04:03;;;;;;;19.53;16.77;;;;;;;-4.99;100.00;97934.41;4201000;28;20226;-49
2022/12/13 08:06:10;;;;;;;23.23;15.67;;;;;;;-4.91;100.00;97937.09;4202302;28;20260;-48
2022/12/13 08:08:12;;;;;;;17.50;13.90;;;;;;;-4.79;100.00;97940.25;4186642;28;20209;-50
2022/12/13 08:10:15;;;;;;;22.03;14.20;;;;;;;-4.70;100.00;97939.22;4188389;28;20212;-48
2022/12/13 08:12:17;;;;;;;20.87;14.83;;;;;;;-4.87;100.00;97932.25;4204808;28;20633;-49
2022/12/13 08:14:23;;;;;;;15.00;13.70;;;;;;;-4.79;100.00;97930.38;4199295;28;20614;-48
2022/12/13 08:16:25;;;;;;;16.70;13.27;;;;;;;-4.68;100.00;97927.38;4219088;27;20641;-49
2022/12/13 08:18:30;;;;;;;21.57;15.23;;;;;;;-4.61;100.00;97932.88;4212307;28;20662;-47
2022/12/13 08:20:32;;;;;;;23.23;17.70;;;;;;;-4.78;100.00;97925.91;4162971;28;20233;-48
2022/12/13 08:22:34;;;;;;;19.17;14.83;;;;;;;-4.57;100.00;97924.34;4203421;28;20580;-48
2022/12/13 08:24:36;;;;;;;16.53;14.93;;;;;;;-4.23;100.00;97927.59;4203583;28;20670;-48
2022/12/13 08:26:38;;;;;;;19.07;15.13;;;;;;;-4.27;100.00;97925.44;4217859;27;20225;-49
2022/12/13 08:28:43;;;;;;;19.63;13.80;;;;;;;-4.18;100.00;97919.06;4200320;28;20203;-49
2022/12/13 08:30:46;;;;;;;16.43;14.83;;;;;;;-3.98;100.00;97925.63;4205459;28;20207;-49
2022/12/13 08:32:49;;;;;;;21.60;13.93;;;;;;;-3.82;100.00;97925.53;4207308;28;20296;-48
2022/12/13 08:34:51;;;;;;;18.63;13.17;;;;;;;-3.82;100.00;97930.88;4200620;28;20203;-48
2022/12/13 08:36:52;;;;;;;20.23;15.33;;;;;;;-4.00;100.00;97933.00;4201055;28;20226;-49
2022/12/13 08:39:03;;;;;;;21.83;14.37;;;;;;;-4.25;100.00;97934.09;4205579;28;20593;-49
2022/12/13 08:41:06;;;;;;;27.07;14.97;;;;;;;-4.34;100.00;97941.28;4200805;28;20309;-49
2022/12/13 08:43:08;;;;;;;24.13;17.67;;;;;;;-4.31;100.00;97940.13;4204774;28;20284;-48
2022/12/13 08:45:10;;;;;;;19.77;17.70;;;;;;;-4.31;100.00;97935.63;4198089;28;20307;-48
2022/12/13 08:47:12;;;;;;;18.53;15.93;;;;;;;-4.64;100.00;97938.53;4203185;28;20234;-48
2022/12/13 08:49:25;;;;;;;24.70;17.97;;;;;;;-4.50;100.00;97929.84;4204236;28;20325;-48
2022/12/13 08:51:27;;;;;;;25.40;18.43;;;;;;;-4.47;100.00;97932.16;4217927;27;20279;-48
2022/12/13 08:53:36;;;;;;;20.83;15.57;;;;;;;-4.50;100.00;97935.16;4202246;28;20576;-47
2022/12/13 08:55:42;;;;;;;24.87;13.83;;;;;;;-4.46;100.00;97936.50;4198962;28;20239;-48
2022/12/13 08:57:44;;;;;;;18.43;14.93;;;;;;;-4.37;100.00;97940.81;4202244;28;20390;-48
2022/12/13 08:59:46;;;;;;;18.07;13.63;;;;;;;-4.34;100.00;97945.81;4202576;28;20207;-47
2022/12/13 09:01:48;;;;;;;17.00;14.53;;;;;;;-4.18;100.00;97951.94;4179014;28;20212;-48
2022/12/13 09:03:55;;;;;;;22.83;14.87;;;;;;;-4.15;100.00;97942.75;4199570;28;20593;-48
2022/12/13 09:05:57;;;;;;;16.90;15.33;;;;;;;-4.23;100.00;97948.09;4198148;28;20655;-48
2022/12/13 09:08:01;;;;;;;18.50;15.07;;;;;;;-4.15;100.00;97940.09;4198158;28;20309;-49
2022/12/13 09:10:04;;;;;;;18.73;15.03;;;;;;;-4.13;100.00;97948.75;4214820;28;20588;-48
2022/12/13 09:12:25;;;;;;;15.83;14.23;;;;;;;-4.08;100.00;97944.53;4200724;28;20203;-48
2022/12/13 09:14:31;;;;;;;16.50;15.00;;;;;;;-4.10;100.00;97945.72;4199567;28;20227;-48
2022/12/13 09:16:35;;;;;;;18.13;13.97;;;;;;;-4.20;100.00;97950.44;4195806;28;20223;-47
2022/12/13 09:18:37;;;;;;;25.77;15.70;;;;;;;-4.40;100.00;97946.50;4180393;28;20254;-48
2022/12/13 09:20:41;;;;;;;38.07;15.87;;;;;;;-4.33;100.00;97942.13;4220190;28;20210;-48
2022/12/13 09:22:43;;;;;;;15.93;13.37;;;;;;;-4.34;100.00;97946.63;4204886;28;20279;-47
2022/12/13 09:24:46;;;;;;;15.10;12.70;;;;;;;-4.49;100.00;97943.00;4201559;28;20693;-48
2022/12/13 09:26:50;;;;;;;17.47;15.27;;;;;;;-4.40;100.00;97943.81;4216580;28;20232;-47
2022/12/13 09:28:58;;;;;;;19.33;14.33;;;;;;;-4.38;100.00;97933.81;4199593;28;20215;-47
2022/12/13 09:31:14;;;;;;;17.53;15.23;;;;;;;-4.14;100.00;97939.06;4201185;28;20198;-47